Ledgewood, New Jersey
Current Conditions -  °F | °C
As of 4:45 PM on Monday 26 Jan 2015 (Local Time) from KMMU Reporting Station
Moderate Snow Moderate Snow  
Wind Chill: 14°   Ceiling: 900
Heat Index: 23°   Visibility: 1mi
Dew Point: 19°   Wind: 8mph
Humidity: 86%   Direction: 50°NE
Pressure: 29.85"   Gusts: 16mph
Location:  40.88°N, 74.66°W
Report Text: KMMU 262145Z 05007G14KT 1SM SN OVC009 M05/M07 A2985
Loading
Personal Weather Stations






























Interactive Weather Map New forecast layout! Learn more

10-Day Weather Forecast

Advertisements
Track Severe Weather on mobile